sensor_id;sensor_type;location;lat;lon;timestamp;temperature;humidity
39983;DHT22;25670;44.782;10.356;2022-12-24T00:00:39;7.60;99.90
39983;DHT22;25670;44.782;10.356;2022-12-24T00:03:05;7.50;99.90
39983;DHT22;25670;44.782;10.356;2022-12-24T00:07:58;7.50;99.90
39983;DHT22;25670;44.782;10.356;2022-12-24T00:10:24;7.50;99.90
39983;DHT22;25670;44.782;10.356;2022-12-24T00:12:50;7.40;99.90
39983;DHT22;25670;44.782;10.356;2022-12-24T00:17:43;7.50;99.90
39983;DHT22;25670;44.782;10.356;2022-12-24T00:20:09;7.50;99.90
39983;DHT22;25670;44.782;10.356;2022-12-24T00:22:35;7.60;99.90
39983;DHT22;25670;44.782;10.356;2022-12-24T00:25:03;7.70;99.90
39983;DHT22;25670;44.782;10.356;2022-12-24T00:27:30;7.70;99.90
39983;DHT22;25670;44.782;10.356;2022-12-24T00:29:57;7.70;99.90
39983;DHT22;25670;44.782;10.356;2022-12-24T00:32:23;8.40;99.90
39983;DHT22;25670;44.782;10.356;2022-12-24T00:37:16;7.60;99.90
39983;DHT22;25670;44.782;10.356;2022-12-24T00:39:42;7.60;99.90
39983;DHT22;25670;44.782;10.356;2022-12-24T00:42:08;7.60;99.90
39983;DHT22;25670;44.782;10.356;2022-12-24T00:44:34;7.60;99.90
39983;DHT22;25670;44.782;10.356;2022-12-24T00:49:27;7.50;99.90
39983;DHT22;25670;44.782;10.356;2022-12-24T00:51:53;7.60;99.90
39983;DHT22;25670;44.782;10.356;2022-12-24T00:54:20;7.70;99.90
39983;DHT22;25670;44.782;10.356;2022-12-24T00:59:12;7.30;99.90
39983;DHT22;25670;44.782;10.356;2022-12-24T01:01:39;7.30;99.90
39983;DHT22;25670;44.782;10.356;2022-12-24T01:04:05;7.60;99.90
39983;DHT22;25670;44.782;10.356;2022-12-24T01:14:11;7.70;99.90
39983;DHT22;25670;44.782;10.356;2022-12-24T01:16:37;7.80;99.90
39983;DHT22;25670;44.782;10.356;2022-12-24T01:19:04;7.70;99.90
39983;DHT22;25670;44.782;10.356;2022-12-24T01:21:30;7.70;99.90
39983;DHT22;25670;44.782;10.356;2022-12-24T01:23:56;7.60;99.90
39983;DHT22;25670;44.782;10.356;2022-12-24T01:26:23;7.70;99.90
39983;DHT22;25670;44.782;10.356;2022-12-24T01:28:49;7.70;99.90
39983;DHT22;25670;44.782;10.356;2022-12-24T01:31:17;7.50;99.90
39983;DHT22;25670;44.782;10.356;2022-12-24T01:33:44;7.60;99.90
39983;DHT22;25670;44.782;10.356;2022-12-24T01:36:12;7.60;99.90
39983;DHT22;25670;44.782;10.356;2022-12-24T01:38:39;7.20;99.90
39983;DHT22;25670;44.782;10.356;2022-12-24T01:46:26;7.80;99.90
39983;DHT22;25670;44.782;10.356;2022-12-24T01:49:00;7.90;99.90
39983;DHT22;25670;44.782;10.356;2022-12-24T01:51:47;7.90;99.90
39983;DHT22;25670;44.782;10.356;2022-12-24T01:54:16;7.90;99.90
39983;DHT22;25670;44.782;10.356;2022-12-24T01:56:48;7.80;99.90
39983;DHT22;25670;44.782;10.356;2022-12-24T01:59:17;7.70;99.90
39983;DHT22;25670;44.782;10.356;2022-12-24T02:01:45;7.90;99.90
39983;DHT22;25670;44.782;10.356;2022-12-24T02:09:43;7.70;99.90
39983;DHT22;25670;44.782;10.356;2022-12-24T02:14:36;7.60;99.90
39983;DHT22;25670;44.782;10.356;2022-12-24T02:36:43;7.70;99.90
39983;DHT22;25670;44.782;10.356;2022-12-24T02:39:25;7.70;99.90
39983;DHT22;25670;44.782;10.356;2022-12-24T02:41:55;7.70;99.90
39983;DHT22;25670;44.782;10.356;2022-12-24T02:44:41;7.70;99.90
39983;DHT22;25670;44.782;10.356;2022-12-24T02:47:10;7.70;99.90
39983;DHT22;25670;44.782;10.356;2022-12-24T02:54:32;8.10;99.90
39983;DHT22;25670;44.782;10.356;2022-12-24T02:57:07;7.70;99.90
39983;DHT22;25670;44.782;10.356;2022-12-24T02:59:58;7.80;99.90
39983;DHT22;25670;44.782;10.356;2022-12-24T03:08:15;7.60;99.90
39983;DHT22;25670;44.782;10.356;2022-12-24T03:10:59;7.50;99.90
39983;DHT22;25670;44.782;10.356;2022-12-24T03:13:27;7.70;99.90
39983;DHT22;25670;44.782;10.356;2022-12-24T03:15:54;7.50;99.90
39983;DHT22;25670;44.782;10.356;2022-12-24T03:18:23;7.60;99.90
39983;DHT22;25670;44.782;10.356;2022-12-24T03:20:59;7.50;99.90
39983;DHT22;25670;44.782;10.356;2022-12-24T03:23:27;7.60;99.90
39983;DHT22;25670;44.782;10.356;2022-12-24T03:25:54;7.70;99.90
39983;DHT22;25670;44.782;10.356;2022-12-24T03:28:26;7.70;99.90
39983;DHT22;25670;44.782;10.356;2022-12-24T03:30:53;7.60;99.90
39983;DHT22;25670;44.782;10.356;2022-12-24T03:33:19;7.70;99.90
39983;DHT22;25670;44.782;10.356;2022-12-24T03:35:46;7.70;99.90
39983;DHT22;25670;44.782;10.356;2022-12-24T03:40:39;7.70;99.90
39983;DHT22;25670;44.782;10.356;2022-12-24T03:43:05;7.80;99.90
39983;DHT22;25670;44.782;10.356;2022-12-24T03:55:17;7.70;99.90
39983;DHT22;25670;44.782;10.356;2022-12-24T04:00:10;7.80;99.90
39983;DHT22;25670;44.782;10.356;2022-12-24T04:02:39;7.80;99.90
39983;DHT22;25670;44.782;10.356;2022-12-24T04:05:06;7.90;99.90
39983;DHT22;25670;44.782;10.356;2022-12-24T04:07:33;7.80;99.90
39983;DHT22;25670;44.782;10.356;2022-12-24T04:17:20;7.80;99.90
39983;DHT22;25670;44.782;10.356;2022-12-24T04:19:46;7.70;99.90
39983;DHT22;25670;44.782;10.356;2022-12-24T04:22:12;7.80;99.90
39983;DHT22;25670;44.782;10.356;2022-12-24T04:24:39;7.90;99.90
39983;DHT22;25670;44.782;10.356;2022-12-24T04:27:05;7.50;99.90
39983;DHT22;25670;44.782;10.356;2022-12-24T04:29:31;7.90;99.90
39983;DHT22;25670;44.782;10.356;2022-12-24T04:34:26;7.70;99.90
39983;DHT22;25670;44.782;10.356;2022-12-24T04:36:52;7.60;99.90
39983;DHT22;25670;44.782;10.356;2022-12-24T04:39:18;8.70;99.90
39983;DHT22;25670;44.782;10.356;2022-12-24T04:41:44;7.70;99.90
39983;DHT22;25670;44.782;10.356;2022-12-24T04:44:11;7.80;99.90
39983;DHT22;25670;44.782;10.356;2022-12-24T04:46:37;7.60;99.90
39983;DHT22;25670;44.782;10.356;2022-12-24T04:49:03;7.80;99.90
39983;DHT22;25670;44.782;10.356;2022-12-24T04:53:56;8.00;99.90
39983;DHT22;25670;44.782;10.356;2022-12-24T04:56:25;7.80;99.90
39983;DHT22;25670;44.782;10.356;2022-12-24T04:58:52;7.80;99.90
39983;DHT22;25670;44.782;10.356;2022-12-24T05:01:21;8.20;99.90
39983;DHT22;25670;44.782;10.356;2022-12-24T05:03:50;6.80;99.90
39983;DHT22;25670;44.782;10.356;2022-12-24T05:06:22;7.90;99.90
39983;DHT22;25670;44.782;10.356;2022-12-24T05:08:49;7.80;99.90
39983;DHT22;25670;44.782;10.356;2022-12-24T05:11:16;7.90;99.90
39983;DHT22;25670;44.782;10.356;2022-12-24T05:13:44;7.80;99.90
39983;DHT22;25670;44.782;10.356;2022-12-24T05:16:11;7.80;99.90
39983;DHT22;25670;44.782;10.356;2022-12-24T05:18:38;7.60;99.90
39983;DHT22;25670;44.782;10.356;2022-12-24T05:21:13;8.30;99.90
39983;DHT22;25670;44.782;10.356;2022-12-24T05:23:40;7.80;99.90
39983;DHT22;25670;44.782;10.356;2022-12-24T05:26:35;7.90;99.90
39983;DHT22;25670;44.782;10.356;2022-12-24T05:29:03;7.80;99.90
39983;DHT22;25670;44.782;10.356;2022-12-24T05:31:31;7.80;99.90
39983;DHT22;25670;44.782;10.356;2022-12-24T05:34:00;8.60;99.90
39983;DHT22;25670;44.782;10.356;2022-12-24T05:36:26;7.60;99.90
39983;DHT22;25670;44.782;10.356;2022-12-24T05:43:46;7.60;99.90
39983;DHT22;25670;44.782;10.356;2022-12-24T05:46:15;7.70;99.90
39983;DHT22;25670;44.782;10.356;2022-12-24T05:51:11;7.80;99.90
39983;DHT22;25670;44.782;10.356;2022-12-24T05:53:39;7.80;99.90
39983;DHT22;25670;44.782;10.356;2022-12-24T05:56:12;8.00;99.90
39983;DHT22;25670;44.782;10.356;2022-12-24T05:58:39;7.70;99.90
39983;DHT22;25670;44.782;10.356;2022-12-24T06:01:08;7.80;99.90
39983;DHT22;25670;44.782;10.356;2022-12-24T06:03:35;7.70;99.90
39983;DHT22;25670;44.782;10.356;2022-12-24T06:06:12;7.80;99.90
39983;DHT22;25670;44.782;10.356;2022-12-24T06:08:40;7.90;99.90
39983;DHT22;25670;44.782;10.356;2022-12-24T06:11:09;7.80;99.90
39983;DHT22;25670;44.782;10.356;2022-12-24T06:13:36;8.00;99.90
39983;DHT22;25670;44.782;10.356;2022-12-24T06:16:04;8.20;99.90
39983;DHT22;25670;44.782;10.356;2022-12-24T06:18:33;7.90;99.90
39983;DHT22;25670;44.782;10.356;2022-12-24T06:20:59;7.70;99.90
39983;DHT22;25670;44.782;10.356;2022-12-24T06:23:28;7.90;99.90
39983;DHT22;25670;44.782;10.356;2022-12-24T06:25:56;7.70;99.90
39983;DHT22;25670;44.782;10.356;2022-12-24T06:28:23;7.60;99.90
39983;DHT22;25670;44.782;10.356;2022-12-24T06:30:49;7.80;99.90
39983;DHT22;25670;44.782;10.356;2022-12-24T06:33:17;7.90;99.90
39983;DHT22;25670;44.782;10.356;2022-12-24T06:35:44;7.80;99.90
39983;DHT22;25670;44.782;10.356;2022-12-24T06:38:11;7.90;99.90
39983;DHT22;25670;44.782;10.356;2022-12-24T06:40:38;7.90;99.90
39983;DHT22;25670;44.782;10.356;2022-12-24T06:43:04;7.80;99.90
39983;DHT22;25670;44.782;10.356;2022-12-24T06:45:32;7.80;99.90
39983;DHT22;25670;44.782;10.356;2022-12-24T06:48:00;8.00;99.90
39983;DHT22;25670;44.782;10.356;2022-12-24T06:52:53;7.80;99.90
39983;DHT22;25670;44.782;10.356;2022-12-24T06:55:19;8.10;99.90
39983;DHT22;25670;44.782;10.356;2022-12-24T07:00:12;7.90;99.90
39983;DHT22;25670;44.782;10.356;2022-12-24T07:02:42;8.00;99.90
39983;DHT22;25670;44.782;10.356;2022-12-24T07:05:10;7.80;99.90
39983;DHT22;25670;44.782;10.356;2022-12-24T07:07:38;8.00;99.90
39983;DHT22;25670;44.782;10.356;2022-12-24T07:10:06;8.40;99.90
39983;DHT22;25670;44.782;10.356;2022-12-24T07:12:34;8.00;99.90
39983;DHT22;25670;44.782;10.356;2022-12-24T07:17:26;8.00;99.90
39983;DHT22;25670;44.782;10.356;2022-12-24T07:24:47;8.20;99.90
39983;DHT22;25670;44.782;10.356;2022-12-24T07:27:13;8.20;99.90
39983;DHT22;25670;44.782;10.356;2022-12-24T07:29:39;8.20;99.90
39983;DHT22;25670;44.782;10.356;2022-12-24T07:32:06;8.10;99.90
39983;DHT22;25670;44.782;10.356;2022-12-24T07:34:32;8.10;99.90
39983;DHT22;25670;44.782;10.356;2022-12-24T07:39:25;8.10;99.90
39983;DHT22;25670;44.782;10.356;2022-12-24T07:41:51;8.30;99.90
39983;DHT22;25670;44.782;10.356;2022-12-24T07:44:18;8.30;99.90
39983;DHT22;25670;44.782;10.356;2022-12-24T07:46:45;8.40;99.90
39983;DHT22;25670;44.782;10.356;2022-12-24T07:49:11;8.40;99.90
39983;DHT22;25670;44.782;10.356;2022-12-24T07:51:38;8.40;99.90
39983;DHT22;25670;44.782;10.356;2022-12-24T07:54:04;8.40;99.90
39983;DHT22;25670;44.782;10.356;2022-12-24T07:56:32;8.40;99.90
39983;DHT22;25670;44.782;10.356;2022-12-24T07:58:59;8.40;99.90
39983;DHT22;25670;44.782;10.356;2022-12-24T08:03:52;8.50;99.90
39983;DHT22;25670;44.782;10.356;2022-12-24T08:06:22;8.50;99.90
39983;DHT22;25670;44.782;10.356;2022-12-24T08:08:49;8.50;99.90
39983;DHT22;25670;44.782;10.356;2022-12-24T08:11:22;8.40;99.90
39983;DHT22;25670;44.782;10.356;2022-12-24T08:13:48;8.60;99.90
39983;DHT22;25670;44.782;10.356;2022-12-24T08:18:42;8.70;99.90
39983;DHT22;25670;44.782;10.356;2022-12-24T08:21:12;8.80;99.90
39983;DHT22;25670;44.782;10.356;2022-12-24T08:23:38;8.70;99.90
39983;DHT22;25670;44.782;10.356;2022-12-24T08:26:09;8.80;99.90
39983;DHT22;25670;44.782;10.356;2022-12-24T08:28:35;8.80;99.90
39983;DHT22;25670;44.782;10.356;2022-12-24T08:31:02;8.60;99.90
39983;DHT22;25670;44.782;10.356;2022-12-24T08:33:28;8.70;99.90
39983;DHT22;25670;44.782;10.356;2022-12-24T08:35:55;9.00;99.90
39983;DHT22;25670;44.782;10.356;2022-12-24T08:38:21;8.80;99.90
39983;DHT22;25670;44.782;10.356;2022-12-24T08:40:48;8.90;99.90
39983;DHT22;25670;44.782;10.356;2022-12-24T08:43:16;8.80;99.90
39983;DHT22;25670;44.782;10.356;2022-12-24T08:48:09;8.80;99.90
39983;DHT22;25670;44.782;10.356;2022-12-24T08:50:39;8.90;99.90
39983;DHT22;25670;44.782;10.356;2022-12-24T08:53:06;9.20;99.90
39983;DHT22;25670;44.782;10.356;2022-12-24T08:55:33;8.90;99.90
39983;DHT22;25670;44.782;10.356;2022-12-24T09:00:26;9.00;99.90
39983;DHT22;25670;44.782;10.356;2022-12-24T09:02:53;9.00;99.90
39983;DHT22;25670;44.782;10.356;2022-12-24T09:05:19;9.00;99.90
39983;DHT22;25670;44.782;10.356;2022-12-24T09:07:45;9.00;99.90
39983;DHT22;25670;44.782;10.356;2022-12-24T09:10:12;9.30;99.90
39983;DHT22;25670;44.782;10.356;2022-12-24T09:12:38;9.20;99.90
39983;DHT22;25670;44.782;10.356;2022-12-24T09:15:04;9.30;99.90
39983;DHT22;25670;44.782;10.356;2022-12-24T09:17:34;9.30;99.90
39983;DHT22;25670;44.782;10.356;2022-12-24T09:20:03;9.30;99.90
39983;DHT22;25670;44.782;10.356;2022-12-24T09:22:37;9.60;99.90
39983;DHT22;25670;44.782;10.356;2022-12-24T09:25:04;9.40;99.90
39983;DHT22;25670;44.782;10.356;2022-12-24T09:27:35;9.30;99.90
39983;DHT22;25670;44.782;10.356;2022-12-24T09:30:03;9.00;99.90
39983;DHT22;25670;44.782;10.356;2022-12-24T09:37:23;9.70;99.90
39983;DHT22;25670;44.782;10.356;2022-12-24T09:39:49;9.50;99.90
39983;DHT22;25670;44.782;10.356;2022-12-24T09:42:18;10.60;99.90
39983;DHT22;25670;44.782;10.356;2022-12-24T09:47:38;9.80;99.90
39983;DHT22;25670;44.782;10.356;2022-12-24T09:50:30;10.40;99.90
39983;DHT22;25670;44.782;10.356;2022-12-24T09:53:03;10.00;99.90
39983;DHT22;25670;44.782;10.356;2022-12-24T09:55:35;9.90;99.90
39983;DHT22;25670;44.782;10.356;2022-12-24T09:58:06;9.90;99.90
39983;DHT22;25670;44.782;10.356;2022-12-24T10:00:36;9.90;99.90
39983;DHT22;25670;44.782;10.356;2022-12-24T10:03:29;10.00;99.90
39983;DHT22;25670;44.782;10.356;2022-12-24T10:11:42;9.60;99.90
39983;DHT22;25670;44.782;10.356;2022-12-24T10:20:05;9.70;99.90
39983;DHT22;25670;44.782;10.356;2022-12-24T10:28:22;9.60;99.90
39983;DHT22;25670;44.782;10.356;2022-12-24T10:30:57;9.70;99.90
39983;DHT22;25670;44.782;10.356;2022-12-24T10:33:46;9.60;99.90
39983;DHT22;25670;44.782;10.356;2022-12-24T10:36:17;9.70;99.90
39983;DHT22;25670;44.782;10.356;2022-12-24T10:38:45;9.70;99.90
39983;DHT22;25670;44.782;10.356;2022-12-24T10:41:12;9.80;99.90
39983;DHT22;25670;44.782;10.356;2022-12-24T10:43:40;9.70;99.90
39983;DHT22;25670;44.782;10.356;2022-12-24T10:46:18;9.60;99.90
39983;DHT22;25670;44.782;10.356;2022-12-24T10:48:56;9.90;99.90
39983;DHT22;25670;44.782;10.356;2022-12-24T10:51:52;10.00;99.90
39983;DHT22;25670;44.782;10.356;2022-12-24T10:54:21;9.80;99.90
39983;DHT22;25670;44.782;10.356;2022-12-24T10:56:50;10.00;99.90
39983;DHT22;25670;44.782;10.356;2022-12-24T10:59:27;10.10;99.90
39983;DHT22;25670;44.782;10.356;2022-12-24T11:01:56;10.00;99.90
39983;DHT22;25670;44.782;10.356;2022-12-24T11:04:28;10.10;99.90
39983;DHT22;25670;44.782;10.356;2022-12-24T11:07:05;10.20;99.90
39983;DHT22;25670;44.782;10.356;2022-12-24T11:09:37;10.30;99.90
39983;DHT22;25670;44.782;10.356;2022-12-24T11:12:16;10.40;99.90
39983;DHT22;25670;44.782;10.356;2022-12-24T11:14:43;10.40;99.90
39983;DHT22;25670;44.782;10.356;2022-12-24T11:17:19;10.60;99.90
39983;DHT22;25670;44.782;10.356;2022-12-24T11:19:48;10.60;99.90
39983;DHT22;25670;44.782;10.356;2022-12-24T11:22:29;10.50;99.90
39983;DHT22;25670;44.782;10.356;2022-12-24T11:25:06;10.30;99.90
39983;DHT22;25670;44.782;10.356;2022-12-24T11:27:46;9.90;99.90
39983;DHT22;25670;44.782;10.356;2022-12-24T11:32:49;10.10;99.90
39983;DHT22;25670;44.782;10.356;2022-12-24T11:35:20;10.90;99.90
39983;DHT22;25670;44.782;10.356;2022-12-24T11:38:07;10.10;99.90
39983;DHT22;25670;44.782;10.356;2022-12-24T11:40:36;10.30;99.90
39983;DHT22;25670;44.782;10.356;2022-12-24T11:43:04;11.10;99.90
39983;DHT22;25670;44.782;10.356;2022-12-24T11:45:32;10.30;99.90
39983;DHT22;25670;44.782;10.356;2022-12-24T11:48:00;10.10;99.90
39983;DHT22;25670;44.782;10.356;2022-12-24T11:50:28;10.00;99.90
39983;DHT22;25670;44.782;10.356;2022-12-24T11:55:42;9.90;99.90
39983;DHT22;25670;44.782;10.356;2022-12-24T12:01:10;9.70;99.90
39983;DHT22;25670;44.782;10.356;2022-12-24T12:03:49;9.70;99.90
39983;DHT22;25670;44.782;10.356;2022-12-24T12:06:28;9.70;99.90
39983;DHT22;25670;44.782;10.356;2022-12-24T12:09:00;9.70;99.90
39983;DHT22;25670;44.782;10.356;2022-12-24T12:13:57;10.00;99.90
39983;DHT22;25670;44.782;10.356;2022-12-24T12:19:03;9.80;99.90
39983;DHT22;25670;44.782;10.356;2022-12-24T12:21:44;9.80;99.90
39983;DHT22;25670;44.782;10.356;2022-12-24T12:24:25;8.50;99.90
39983;DHT22;25670;44.782;10.356;2022-12-24T12:27:05;9.70;99.90
39983;DHT22;25670;44.782;10.356;2022-12-24T12:29:41;9.50;99.90
39983;DHT22;25670;44.782;10.356;2022-12-24T12:32:18;9.70;99.90
39983;DHT22;25670;44.782;10.356;2022-12-24T12:35:12;9.70;99.90
39983;DHT22;25670;44.782;10.356;2022-12-24T12:37:43;9.60;99.90
39983;DHT22;25670;44.782;10.356;2022-12-24T12:40:15;9.60;99.90
39983;DHT22;25670;44.782;10.356;2022-12-24T12:43:08;9.60;99.90
39983;DHT22;25670;44.782;10.356;2022-12-24T12:46:29;9.60;99.90
39983;DHT22;25670;44.782;10.356;2022-12-24T12:51:11;9.50;99.90
39983;DHT22;25670;44.782;10.356;2022-12-24T12:56:25;9.50;99.90
39983;DHT22;25670;44.782;10.356;2022-12-24T12:59:09;9.40;99.90
39983;DHT22;25670;44.782;10.356;2022-12-24T13:02:12;9.40;99.90
39983;DHT22;25670;44.782;10.356;2022-12-24T13:19:22;9.40;99.90
39983;DHT22;25670;44.782;10.356;2022-12-24T13:21:55;9.50;99.90
39983;DHT22;25670;44.782;10.356;2022-12-24T13:24:26;9.50;99.90
39983;DHT22;25670;44.782;10.356;2022-12-24T13:27:20;9.60;99.90
39983;DHT22;25670;44.782;10.356;2022-12-24T13:29:59;9.50;99.90
39983;DHT22;25670;44.782;10.356;2022-12-24T13:35:00;9.50;99.90
39983;DHT22;25670;44.782;10.356;2022-12-24T13:37:31;9.50;99.90
39983;DHT22;25670;44.782;10.356;2022-12-24T13:48:02;9.70;99.90
39983;DHT22;25670;44.782;10.356;2022-12-24T13:53:16;9.60;99.90
39983;DHT22;25670;44.782;10.356;2022-12-24T13:55:56;10.10;99.90
39983;DHT22;25670;44.782;10.356;2022-12-24T13:58:23;9.70;99.90
39983;DHT22;25670;44.782;10.356;2022-12-24T14:00:56;9.60;99.90
39983;DHT22;25670;44.782;10.356;2022-12-24T14:03:36;10.30;99.90
39983;DHT22;25670;44.782;10.356;2022-12-24T14:08:54;9.60;99.90
39983;DHT22;25670;44.782;10.356;2022-12-24T14:14:08;11.30;99.90
39983;DHT22;25670;44.782;10.356;2022-12-24T14:16:47;9.60;99.90
39983;DHT22;25670;44.782;10.356;2022-12-24T14:25:21;9.60;99.90
39983;DHT22;25670;44.782;10.356;2022-12-24T14:35:39;9.50;99.90
39983;DHT22;25670;44.782;10.356;2022-12-24T14:38:18;9.40;99.90
39983;DHT22;25670;44.782;10.356;2022-12-24T14:57:12;9.30;99.90
39983;DHT22;25670;44.782;10.356;2022-12-24T14:59:48;9.20;99.90
39983;DHT22;25670;44.782;10.356;2022-12-24T15:02:36;9.30;99.90
39983;DHT22;25670;44.782;10.356;2022-12-24T15:05:30;9.10;99.90
39983;DHT22;25670;44.782;10.356;2022-12-24T15:14:41;9.20;99.90
39983;DHT22;25670;44.782;10.356;2022-12-24T15:17:11;9.20;99.90
39983;DHT22;25670;44.782;10.356;2022-12-24T15:19:41;9.10;99.90
39983;DHT22;25670;44.782;10.356;2022-12-24T15:22:11;9.20;99.90
39983;DHT22;25670;44.782;10.356;2022-12-24T15:24:48;9.20;99.90
39983;DHT22;25670;44.782;10.356;2022-12-24T15:27:20;9.20;99.90
39983;DHT22;25670;44.782;10.356;2022-12-24T15:29:50;9.30;99.90
39983;DHT22;25670;44.782;10.356;2022-12-24T15:32:34;9.30;99.90
39983;DHT22;25670;44.782;10.356;2022-12-24T15:37:40;9.20;99.90
39983;DHT22;25670;44.782;10.356;2022-12-24T15:40:19;9.20;99.90
39983;DHT22;25670;44.782;10.356;2022-12-24T15:45:18;9.10;99.90
39983;DHT22;25670;44.782;10.356;2022-12-24T15:48:00;9.20;99.90
39983;DHT22;25670;44.782;10.356;2022-12-24T15:50:33;9.10;99.90
39983;DHT22;25670;44.782;10.356;2022-12-24T15:53:06;9.20;99.90
39983;DHT22;25670;44.782;10.356;2022-12-24T16:00:28;9.00;99.90
39983;DHT22;25670;44.782;10.356;2022-12-24T16:03:17;9.10;99.90
39983;DHT22;25670;44.782;10.356;2022-12-24T16:10:47;9.30;99.90
39983;DHT22;25670;44.782;10.356;2022-12-24T16:15:59;9.00;99.90
39983;DHT22;25670;44.782;10.356;2022-12-24T16:18:39;9.00;99.90
39983;DHT22;25670;44.782;10.356;2022-12-24T16:23:47;9.00;99.90
39983;DHT22;25670;44.782;10.356;2022-12-24T16:31:17;8.90;99.90
39983;DHT22;25670;44.782;10.356;2022-12-24T16:33:45;8.90;99.90
39983;DHT22;25670;44.782;10.356;2022-12-24T16:36:15;8.80;99.90
39983;DHT22;25670;44.782;10.356;2022-12-24T16:48:47;8.90;99.90
39983;DHT22;25670;44.782;10.356;2022-12-24T16:51:13;8.20;99.90
39983;DHT22;25670;44.782;10.356;2022-12-24T16:53:40;9.00;99.90
39983;DHT22;25670;44.782;10.356;2022-12-24T16:58:33;9.10;99.90
39983;DHT22;25670;44.782;10.356;2022-12-24T17:01:05;8.60;99.90
39983;DHT22;25670;44.782;10.356;2022-12-24T17:05:59;9.00;99.90
39983;DHT22;25670;44.782;10.356;2022-12-24T17:08:28;9.00;99.90
39983;DHT22;25670;44.782;10.356;2022-12-24T17:10:54;8.90;99.90
39983;DHT22;25670;44.782;10.356;2022-12-24T17:13:21;9.20;99.90
39983;DHT22;25670;44.782;10.356;2022-12-24T17:23:10;9.00;99.90
39983;DHT22;25670;44.782;10.356;2022-12-24T17:25:36;9.10;99.90
39983;DHT22;25670;44.782;10.356;2022-12-24T17:30:29;9.70;99.90
39983;DHT22;25670;44.782;10.356;2022-12-24T17:42:42;9.90;99.90
39983;DHT22;25670;44.782;10.356;2022-12-24T17:45:08;8.80;99.90
39983;DHT22;25670;44.782;10.356;2022-12-24T17:47:35;9.70;99.90
39983;DHT22;25670;44.782;10.356;2022-12-24T17:50:01;9.10;99.90
39983;DHT22;25670;44.782;10.356;2022-12-24T17:57:21;9.10;99.90
39983;DHT22;25670;44.782;10.356;2022-12-24T18:04:40;9.20;99.90
39983;DHT22;25670;44.782;10.356;2022-12-24T18:07:06;9.00;99.90
39983;DHT22;25670;44.782;10.356;2022-12-24T18:09:32;8.60;99.90
39983;DHT22;25670;44.782;10.356;2022-12-24T18:11:59;9.10;99.90
39983;DHT22;25670;44.782;10.356;2022-12-24T18:19:19;9.00;99.90
39983;DHT22;25670;44.782;10.356;2022-12-24T18:21:45;9.00;99.90
39983;DHT22;25670;44.782;10.356;2022-12-24T18:26:38;9.00;99.90
39983;DHT22;25670;44.782;10.356;2022-12-24T18:29:06;9.10;99.90
39983;DHT22;25670;44.782;10.356;2022-12-24T18:31:34;9.10;99.90
39983;DHT22;25670;44.782;10.356;2022-12-24T18:34:02;9.10;99.90
39983;DHT22;25670;44.782;10.356;2022-12-24T18:41:25;9.10;99.90
39983;DHT22;25670;44.782;10.356;2022-12-24T18:43:53;9.00;99.90
39983;DHT22;25670;44.782;10.356;2022-12-24T18:46:23;9.00;99.90
39983;DHT22;25670;44.782;10.356;2022-12-24T18:48:51;9.10;99.90
39983;DHT22;25670;44.782;10.356;2022-12-24T18:51:30;9.00;99.90
39983;DHT22;25670;44.782;10.356;2022-12-24T18:56:24;9.00;99.90
39983;DHT22;25670;44.782;10.356;2022-12-24T18:58:53;9.00;99.90
39983;DHT22;25670;44.782;10.356;2022-12-24T19:01:26;9.00;99.90
39983;DHT22;25670;44.782;10.356;2022-12-24T19:21:48;9.00;99.90
39983;DHT22;25670;44.782;10.356;2022-12-24T19:24:15;8.90;99.90
39983;DHT22;25670;44.782;10.356;2022-12-24T19:36:32;8.80;99.90
39983;DHT22;25670;44.782;10.356;2022-12-24T19:41:32;8.50;99.90
39983;DHT22;25670;44.782;10.356;2022-12-24T19:45:16;8.80;99.90
39983;DHT22;25670;44.782;10.356;2022-12-24T19:54:13;8.70;99.90
39983;DHT22;25670;44.782;10.356;2022-12-24T19:56:40;11.00;99.90
39983;DHT22;25670;44.782;10.356;2022-12-24T20:04:17;8.90;99.90
39983;DHT22;25670;44.782;10.356;2022-12-24T20:06:44;9.30;99.90
39983;DHT22;25670;44.782;10.356;2022-12-24T20:14:05;8.40;99.90
39983;DHT22;25670;44.782;10.356;2022-12-24T20:19:00;8.80;99.90
39983;DHT22;25670;44.782;10.356;2022-12-24T20:21:29;9.20;99.90
39983;DHT22;25670;44.782;10.356;2022-12-24T20:26:25;9.00;99.90
39983;DHT22;25670;44.782;10.356;2022-12-24T20:31:21;8.90;99.90
39983;DHT22;25670;44.782;10.356;2022-12-24T20:36:16;8.90;99.90
39983;DHT22;25670;44.782;10.356;2022-12-24T20:41:12;8.80;99.90
39983;DHT22;25670;44.782;10.356;2022-12-24T20:51:05;8.90;99.90
39983;DHT22;25670;44.782;10.356;2022-12-24T20:58:24;8.90;99.90
39983;DHT22;25670;44.782;10.356;2022-12-24T21:00:50;9.70;99.90
39983;DHT22;25670;44.782;10.356;2022-12-24T21:03:17;8.90;99.90
39983;DHT22;25670;44.782;10.356;2022-12-24T21:05:44;8.90;99.90
39983;DHT22;25670;44.782;10.356;2022-12-24T21:08:12;9.20;99.90
39983;DHT22;25670;44.782;10.356;2022-12-24T21:10:39;9.20;99.90
39983;DHT22;25670;44.782;10.356;2022-12-24T21:15:38;9.10;99.90
39983;DHT22;25670;44.782;10.356;2022-12-24T21:18:07;9.00;99.90
39983;DHT22;25670;44.782;10.356;2022-12-24T21:20:38;9.20;99.90
39983;DHT22;25670;44.782;10.356;2022-12-24T21:23:06;9.10;99.90
39983;DHT22;25670;44.782;10.356;2022-12-24T21:28:00;9.10;99.90
39983;DHT22;25670;44.782;10.356;2022-12-24T21:30:27;9.10;99.90
39983;DHT22;25670;44.782;10.356;2022-12-24T21:45:07;9.00;99.90
39983;DHT22;25670;44.782;10.356;2022-12-24T21:52:47;8.90;99.90
39983;DHT22;25670;44.782;10.356;2022-12-24T22:02:58;8.90;99.90
39983;DHT22;25670;44.782;10.356;2022-12-24T22:05:25;8.90;99.90
39983;DHT22;25670;44.782;10.356;2022-12-24T22:10:38;8.80;99.90
39983;DHT22;25670;44.782;10.356;2022-12-24T22:13:33;8.80;99.90
39983;DHT22;25670;44.782;10.356;2022-12-24T22:15:59;8.80;99.90
39983;DHT22;25670;44.782;10.356;2022-12-24T22:18:26;8.80;99.90
39983;DHT22;25670;44.782;10.356;2022-12-24T22:20:53;8.70;99.90
39983;DHT22;25670;44.782;10.356;2022-12-24T22:23:19;8.70;99.90
39983;DHT22;25670;44.782;10.356;2022-12-24T22:25:45;8.80;99.90
39983;DHT22;25670;44.782;10.356;2022-12-24T22:28:12;8.80;99.90
39983;DHT22;25670;44.782;10.356;2022-12-24T22:30:40;8.80;99.90
39983;DHT22;25670;44.782;10.356;2022-12-24T22:33:07;8.80;99.90
39983;DHT22;25670;44.782;10.356;2022-12-24T22:35:40;8.80;99.90
39983;DHT22;25670;44.782;10.356;2022-12-24T22:43:40;8.80;99.90
39983;DHT22;25670;44.782;10.356;2022-12-24T22:46:07;8.80;99.90
39983;DHT22;25670;44.782;10.356;2022-12-24T22:48:35;8.80;99.90
39983;DHT22;25670;44.782;10.356;2022-12-24T22:51:11;8.80;99.90
39983;DHT22;25670;44.782;10.356;2022-12-24T22:53:38;8.90;99.90
39983;DHT22;25670;44.782;10.356;2022-12-24T22:56:05;8.90;99.90
39983;DHT22;25670;44.782;10.356;2022-12-24T22:58:32;8.90;99.90